Brian S. — WCP9410 — position and weather

sailwx.info

Track history (hours):
 
Tides and Currents Weather Stations Pressure Air Temp Water Temp Dewpoint Dewpoint Depression Visibility Wind Speed Wind Dir Waves Ship Positions

Brian S.

Owner: Harley Marine Services, INC, SEATTLE, WA. More information available from US FCC via Universal Licensing System and Coast Guard Vessel Documentation Center.

Last reported at 2017-Dec-16 20:28 UTC. Time now 2017-Dec-16 20:44 UTC.
Position N 48°08' W 123°28'.

Length 33 m; draft 4 m.

Type: Towing. MMSI: 366980250.

Date/timePositionNaut miles runAvg speedWind from/ knotsBaromVisibWave heightAir tempDewpointWater temp
2017-Dec-16 20:28N 48°08' W 123°28'0 0.0
2017-Dec-16 19:58N 48°08' W 123°28'0 0.0
2017-Dec-16 19:28N 48°08' W 123°28'0 0.0
2017-Dec-16 18:58N 48°08' W 123°28'0 0.0
2017-Dec-16 18:28N 48°08' W 123°28'0 0.0
2017-Dec-16 17:58N 48°08' W 123°28'0 0.0
2017-Dec-16 17:28N 48°08' W 123°28'0 0.0
2017-Dec-16 16:58N 48°08' W 123°28'0 0.0
2017-Dec-16 16:28N 48°08' W 123°28'0 0.0
2017-Dec-16 15:55N 48°08' W 123°28'2 5.5
2017-Dec-16 15:31N 48°08' W 123°24'0 0.1
2017-Dec-16 14:58N 48°08' W 123°24'0 0.1
2017-Dec-16 14:28N 48°08' W 123°24'0 0.1
2017-Dec-16 13:55N 48°08' W 123°24'0 0.0
2017-Dec-16 13:28N 48°08' W 123°24'0 0.1
2017-Dec-16 12:55N 48°08' W 123°24'0 0.2
2017-Dec-16 12:28N 48°08' W 123°24'0 0.1
2017-Dec-16 11:58N 48°08' W 123°24'0 0.1
2017-Dec-16 11:28N 48°08' W 123°24'0 0.1
2017-Dec-16 10:58N 48°08' W 123°24'0 0.0
2017-Dec-16 10:01N 48°08' W 123°24'0 0.1
2017-Dec-16 09:58N 48°08' W 123°24'1 3.2
2017-Dec-16 09:30N 48°08' W 123°26'1 1.5
2017-Dec-16 08:56N 48°08' W 123°28'0 0.0
2017-Dec-16 08:29N 48°08' W 123°28'0 0.0
2017-Dec-16 07:56N 48°08' W 123°28'0 0.0
2017-Dec-16 07:20N 48°08' W 123°28'0 0.0
2017-Dec-16 06:20N 48°08' W 123°28'0 0.0
2017-Dec-16 05:56N 48°08' W 123°28'0 0.0
2017-Dec-16 04:32N 48°08' W 123°28'0 0.0
2017-Dec-16 04:26N 48°08' W 123°28'0 0.0
2017-Dec-16 03:59N 48°08' W 123°28'0 0.0
2017-Dec-16 03:29N 48°08' W 123°28'0 0.0
2017-Dec-16 02:56N 48°08' W 123°28'0 0.0
2017-Dec-16 02:26N 48°08' W 123°28'0 0.0
2017-Dec-16 01:56N 48°08' W 123°28'0 0.0
2017-Dec-16 01:26N 48°08' W 123°28'0 0.0
2017-Dec-16 00:56N 48°08' W 123°28'0 0.0
2017-Dec-16 00:26N 48°08' W 123°28'0 0.0
2017-Dec-15 23:56N 48°08' W 123°28'0 0.0
2017-Dec-15 23:26N 48°08' W 123°28'0 0.0
2017-Dec-15 22:56N 48°08' W 123°28'0 0.0
2017-Dec-15 22:26N 48°08' W 123°28'0 0.0
2017-Dec-15 21:56N 48°08' W 123°28'0 0.0
2017-Dec-15 21:26N 48°08' W 123°28'0 0.0
2017-Dec-15 20:56N 48°08' W 123°28'0 0.0
2017-Dec-15 20:26N 48°08' W 123°28'0 1.1
2017-Dec-15 20:00N 48°08' W 123°27'0 0.3
2017-Dec-15 19:25N 48°08' W 123°27'0 0.0
2017-Dec-15 18:55N 48°08' W 123°27'0 0.0
2017-Dec-15 18:25N 48°08' W 123°27'0 0.0
2017-Dec-15 17:55N 48°08' W 123°27'0 0.1
2017-Dec-15 17:28N 48°08' W 123°27'0 0.1
2017-Dec-15 16:58N 48°08' W 123°27'0 0.1
2017-Dec-15 16:28N 48°08' W 123°27'0 0.1
2017-Dec-15 15:58N 48°08' W 123°27'0 0.0
2017-Dec-15 15:28N 48°08' W 123°27'0 0.0
2017-Dec-15 14:58N 48°08' W 123°27'0 0.2
2017-Dec-15 14:30N 48°08' W 123°27'2 2.9
2017-Dec-15 13:55N 48°08' W 123°24'0 0.1
2017-Dec-15 13:25N 48°08' W 123°24'0 0.0
2017-Dec-15 12:58N 48°08' W 123°24'0 0.0
2017-Dec-15 12:22N 48°08' W 123°24'0 0.0
2017-Dec-15 11:55N 48°08' W 123°24'0 0.1
2017-Dec-15 11:28N 48°08' W 123°24'0 0.0
2017-Dec-15 10:58N 48°08' W 123°24'0 0.1
2017-Dec-15 10:28N 48°08' W 123°24'0 0.0
2017-Dec-15 09:58N 48°08' W 123°24'0 0.1
2017-Dec-15 09:25N 48°08' W 123°24'0 0.0
2017-Dec-15 08:58N 48°08' W 123°24'0 0.0
2017-Dec-15 08:25N 48°08' W 123°24'0 0.2
2017-Dec-15 08:00N 48°08' W 123°24'2 4.1
2017-Dec-15 07:29N 48°08' W 123°28'0 0.0
2017-Dec-15 06:56N 48°08' W 123°28'0 0.0
2017-Dec-15 06:29N 48°08' W 123°28'0 0.0
2017-Dec-15 05:59N 48°08' W 123°28'0 0.0
2017-Dec-15 05:26N 48°08' W 123°28'0 0.0
2017-Dec-15 04:56N 48°08' W 123°28'0 0.0
2017-Dec-15 04:23N 48°08' W 123°28'0 0.0
2017-Dec-15 03:56N 48°08' W 123°28'0 0.0
2017-Dec-15 02:28N 48°08' W 123°28'0 0.0
2017-Dec-15 00:58N 48°08' W 123°28'0 0.0
2017-Dec-15 00:28N 48°08' W 123°28'0 0.0
2017-Dec-14 18:28N 48°08' W 123°28'0 0.0
2017-Dec-14 17:58N 48°08' W 123°28'0 0.0
2017-Dec-14 17:25N 48°08' W 123°28'0 0.0
2017-Dec-14 16:58N 48°08' W 123°28'0 0.0
2017-Dec-14 16:28N 48°08' W 123°28'0 0.0
2017-Dec-14 15:58N 48°08' W 123°28'0 0.0
2017-Dec-14 14:58N 48°08' W 123°28'0 0.0
2017-Dec-14 14:28N 48°08' W 123°28'0 0.0
2017-Dec-14 13:58N 48°08' W 123°28'0 0.0
2017-Dec-14 13:28N 48°08' W 123°28'0 0.0
2017-Dec-14 12:58N 48°08' W 123°28'0 0.0
2017-Dec-14 12:28N 48°08' W 123°28'0 0.0
2017-Dec-14 11:58N 48°08' W 123°28'0 0.0
2017-Dec-14 11:28N 48°08' W 123°28'0 0.0
2017-Dec-14 10:58N 48°08' W 123°28'0 0.0
2017-Dec-14 10:28N 48°08' W 123°28'0 0.0
2017-Dec-14 09:58N 48°08' W 123°28'0 0.0
2017-Dec-14 09:28N 48°08' W 123°28'0 0.0
2017-Dec-14 08:58N 48°08' W 123°28'0 0.0
2017-Dec-14 08:28N 48°08' W 123°28'0 0.0
2017-Dec-14 07:58N 48°08' W 123°28'0 0.0
2017-Dec-14 07:28N 48°08' W 123°28'0 0.0
2017-Dec-14 06:58N 48°08' W 123°28'0 0.0
2017-Dec-14 06:28N 48°08' W 123°28'0 0.0
2017-Dec-14 05:58N 48°08' W 123°28'0 0.0
2017-Dec-14 05:28N 48°08' W 123°28'0 0.0
2017-Dec-14 04:58N 48°08' W 123°28'0 0.0
2017-Dec-14 04:28N 48°08' W 123°28'0 0.0
2017-Dec-14 03:55N 48°08' W 123°28'0 0.0
2017-Dec-14 03:28N 48°08' W 123°28'0 0.0
2017-Dec-14 02:58N 48°08' W 123°28'0 0.0
2017-Dec-14 02:28N 48°08' W 123°28'0 0.0
2017-Dec-14 01:55N 48°08' W 123°28'0 0.0
2017-Dec-14 01:28N 48°08' W 123°28'0 0.0
2017-Dec-14 00:58N 48°08' W 123°28'0 0.0
2017-Dec-14 00:28N 48°08' W 123°28'0 0.0
2017-Dec-13 23:58N 48°08' W 123°28'0 0.0
2017-Dec-13 23:28N 48°08' W 123°28'0 0.0
2017-Dec-13 22:58N 48°08' W 123°28'0 0.0
2017-Dec-13 22:28N 48°08' W 123°28'0 0.0
2017-Dec-13 21:58N 48°08' W 123°28'0 0.0
2017-Dec-13 21:28N 48°08' W 123°28'0 0.0
2017-Dec-13 20:58N 48°08' W 123°28'0 0.0
2017-Dec-13 20:28N 48°08' W 123°28'0 0.0
2017-Dec-13 19:58N 48°08' W 123°28'0 0.0
2017-Dec-13 19:28N 48°08' W 123°28'0 0.0
2017-Dec-13 18:58N 48°08' W 123°28'0 0.0
2017-Dec-13 18:28N 48°08' W 123°28'0 0.0
2017-Dec-13 17:58N 48°08' W 123°28'0 0.0
2017-Dec-13 17:22N 48°08' W 123°28'0 0.0
2017-Dec-13 17:01N 48°08' W 123°28'0 0.0
2017-Dec-13 16:31N 48°08' W 123°28'0 0.0
2017-Dec-13 16:00N 48°08' W 123°28'0 0.0
2017-Dec-13 15:30N 48°08' W 123°28'0 0.0
2017-Dec-13 14:57N 48°08' W 123°28'0 0.0
2017-Dec-13 14:30N 48°08' W 123°28'0 0.0
2017-Dec-13 13:57N 48°08' W 123°28'0 0.0
2017-Dec-13 13:30N 48°08' W 123°28'0 0.0
2017-Dec-13 13:00N 48°08' W 123°28'0 0.0
2017-Dec-13 12:30N 48°08' W 123°28'0 0.0
2017-Dec-13 12:00N 48°08' W 123°28'0 0.0
2017-Dec-13 11:30N 48°08' W 123°28'0 0.0
2017-Dec-13 11:00N 48°08' W 123°28'0 0.0
2017-Dec-13 10:30N 48°08' W 123°28'0 0.0
2017-Dec-13 10:00N 48°08' W 123°28'0 0.0
2017-Dec-13 09:27N 48°08' W 123°28'0 0.0
2017-Dec-13 08:57N 48°08' W 123°28'0 0.0
2017-Dec-13 08:27N 48°08' W 123°28'0 0.0
2017-Dec-13 07:57N 48°08' W 123°28'0 0.0
2017-Dec-13 07:15N 48°08' W 123°28'0 0.0
2017-Dec-13 03:45N 48°08' W 123°28'0 0.0
2017-Dec-13 03:27N 48°08' W 123°28'0 0.0
2017-Dec-13 03:00N 48°08' W 123°28'0 0.0
2017-Dec-13 02:30N 48°08' W 123°28'0 0.0
2017-Dec-13 01:57N 48°08' W 123°28'0 0.0
2017-Dec-13 01:27N 48°08' W 123°28'0 0.0
2017-Dec-13 00:57N 48°08' W 123°28'0 0.0
2017-Dec-13 00:27N 48°08' W 123°28'0 0.0
2017-Dec-12 23:57N 48°08' W 123°28'0 0.0
2017-Dec-12 23:27N 48°08' W 123°28'0 0.0
2017-Dec-12 22:57N 48°08' W 123°28'0 0.0
2017-Dec-12 22:27N 48°08' W 123°28'0 0.0
2017-Dec-12 21:57N 48°08' W 123°28'0 0.0
2017-Dec-12 21:27N 48°08' W 123°28'0 0.0
2017-Dec-12 20:57N 48°08' W 123°28'0 0.0
2017-Dec-12 20:21N 48°08' W 123°28'0 0.0
2017-Dec-12 20:00N 48°08' W 123°28'0 0.0
2017-Dec-12 19:30N 48°08' W 123°28'0 0.0
2017-Dec-12 19:00N 48°08' W 123°28'0 0.0
2017-Dec-12 18:30N 48°08' W 123°28'0 0.0
2017-Dec-12 18:00N 48°08' W 123°28'0 0.0
2017-Dec-12 17:30N 48°08' W 123°28'0 0.0
2017-Dec-12 16:57N 48°08' W 123°28'0 0.0
2017-Dec-12 16:30N 48°08' W 123°28'0 0.0
2017-Dec-12 16:00N 48°08' W 123°28'0 0.0
2017-Dec-12 15:30N 48°08' W 123°28'0 0.0
2017-Dec-12 15:00N 48°08' W 123°28'0 0.0
2017-Dec-12 14:30N 48°08' W 123°28'0 0.0
2017-Dec-12 14:00N 48°08' W 123°28'0 0.0
2017-Dec-12 13:30N 48°08' W 123°28'0 0.0
2017-Dec-12 13:00N 48°08' W 123°28'0 0.0
2017-Dec-12 12:30N 48°08' W 123°28'0 0.0
2017-Dec-12 12:00N 48°08' W 123°28'0 0.0
2017-Dec-12 11:30N 48°08' W 123°28'0 0.0
2017-Dec-12 11:00N 48°08' W 123°28'0 0.0
2017-Dec-12 10:30N 48°08' W 123°28'0 0.0
2017-Dec-12 10:00N 48°08' W 123°28'0 0.0
2017-Dec-12 09:30N 48°08' W 123°28'0 0.0
2017-Dec-12 09:00N 48°08' W 123°28'0 0.0
2017-Dec-12 08:30N 48°08' W 123°28'0 0.0
2017-Dec-12 08:00N 48°08' W 123°28'0 0.0
2017-Dec-12 07:30N 48°08' W 123°28'0 0.0
2017-Dec-12 07:00N 48°08' W 123°28'0 0.0
2017-Dec-12 06:30N 48°08' W 123°28'0 0.0
2017-Dec-12 06:00N 48°08' W 123°28'0 0.0
2017-Dec-12 05:30N 48°08' W 123°28'0 0.0
2017-Dec-12 05:00N 48°08' W 123°28'0 0.0
2017-Dec-12 04:29N 48°08' W 123°28'0 0.0
2017-Dec-12 03:59N 48°08' W 123°28'0 0.0
2017-Dec-12 03:29N 48°08' W 123°28'0 0.0
2017-Dec-12 02:59N 48°08' W 123°28'0 0.0
2017-Dec-12 02:29N 48°08' W 123°28'0 0.0
2017-Dec-12 01:59N 48°08' W 123°28'0 0.0
2017-Dec-12 01:29N 48°08' W 123°28'0 0.0
2017-Dec-12 00:59N 48°08' W 123°28'0 0.0
2017-Dec-12 00:29N 48°08' W 123°28'0 0.0
2017-Dec-11 23:59N 48°08' W 123°28'0 0.0
2017-Dec-11 23:29N 48°08' W 123°28'0 0.0
2017-Dec-11 22:59N 48°08' W 123°28'0 0.0
2017-Dec-11 22:29N 48°08' W 123°28'0 0.0
2017-Dec-11 21:59N 48°08' W 123°28'0 0.0
2017-Dec-11 21:29N 48°08' W 123°28'0 0.0
2017-Dec-11 20:59N 48°08' W 123°28'0 0.0
2017-Dec-11 20:26N 48°08' W 123°28'0 0.0
2017-Dec-11 19:59N 48°08' W 123°28'0 0.0
2017-Dec-11 19:29N 48°08' W 123°28'0 0.0
2017-Dec-11 18:59N 48°08' W 123°28'0 0.0
2017-Dec-11 18:29N 48°08' W 123°28'0 0.0
2017-Dec-11 17:59N 48°08' W 123°28'0 0.0
2017-Dec-11 17:29N 48°08' W 123°28'0 0.0
2017-Dec-11 16:59N 48°08' W 123°28'0 0.0
2017-Dec-11 16:26N 48°08' W 123°28'0 0.0
2017-Dec-11 15:56N 48°08' W 123°28'0 0.0
2017-Dec-11 15:29N 48°08' W 123°28'0 0.0
2017-Dec-11 14:59N 48°08' W 123°28'0 0.0
2017-Dec-11 14:29N 48°08' W 123°28'0 0.0
2017-Dec-11 13:59N 48°08' W 123°28'0 0.0
2017-Dec-11 13:29N 48°08' W 123°28'0 0.0
2017-Dec-11 12:56N 48°08' W 123°28'0 0.0
2017-Dec-11 12:29N 48°08' W 123°28'1 1.1
2017-Dec-11 12:00N 48°08' W 123°27'0 0.1
2017-Dec-11 11:30N 48°08' W 123°27'0 0.0
2017-Dec-11 11:00N 48°08' W 123°27'0 0.0
2017-Dec-11 10:30N 48°08' W 123°27'0 0.1
2017-Dec-11 10:00N 48°08' W 123°27'0 0.1
2017-Dec-11 09:27N 48°08' W 123°27'0 0.0
2017-Dec-11 08:57N 48°08' W 123°27'0 0.0
2017-Dec-11 08:27N 48°08' W 123°27'0 0.1
2017-Dec-11 07:57N 48°08' W 123°27'0 0.0
2017-Dec-11 07:03N 48°08' W 123°27'0 0.1
2017-Dec-11 06:57N 48°08' W 123°27'0 0.0
2017-Dec-11 06:28N 48°08' W 123°27'0 0.1
2017-Dec-11 06:00N 48°08' W 123°27'0 0.2
2017-Dec-11 05:27N 48°08' W 123°27'0 0.8
2017-Dec-11 05:00N 48°08' W 123°27'1 1.5
2017-Dec-11 04:30N 48°08' W 123°26'1 2.0
2017-Dec-11 03:59N 48°08' W 123°28'0 0.0
2017-Dec-11 03:29N 48°08' W 123°28'0 0.0
2017-Dec-11 02:59N 48°08' W 123°28'0 0.0
2017-Dec-11 02:29N 48°08' W 123°28'0 0.0
2017-Dec-11 01:59N 48°08' W 123°28'0 0.0
2017-Dec-11 01:26N 48°08' W 123°28'0 0.0
2017-Dec-11 00:59N 48°08' W 123°28'0 0.0
2017-Dec-11 00:29N 48°08' W 123°28'0 0.0
2017-Dec-10 23:59N 48°08' W 123°28'0 0.0
2017-Dec-10 23:29N 48°08' W 123°28'0 0.0
2017-Dec-10 22:59N 48°08' W 123°28'0 0.0
2017-Dec-10 22:29N 48°08' W 123°28'0 0.0
2017-Dec-10 21:59N 48°08' W 123°28'0 0.0
2017-Dec-10 21:29N 48°08' W 123°28'0 0.0
2017-Dec-10 20:59N 48°08' W 123°28'0 0.0
2017-Dec-10 20:26N 48°08' W 123°28'0 0.0
2017-Dec-10 19:59N 48°08' W 123°28'0 0.0
2017-Dec-10 19:29N 48°08' W 123°28'0 0.0
2017-Dec-10 18:59N 48°08' W 123°28'0 0.0
2017-Dec-10 18:29N 48°08' W 123°28'0 0.0
2017-Dec-10 17:59N 48°08' W 123°28'0 0.0
2017-Dec-10 17:26N 48°08' W 123°28'0 0.0
2017-Dec-10 16:59N 48°08' W 123°28'0 0.0
2017-Dec-10 16:29N 48°08' W 123°28'0 0.0
2017-Dec-10 15:59N 48°08' W 123°28'2 3.2
2017-Dec-10 15:29N 48°08' W 123°25'0 0.1
2017-Dec-10 14:56N 48°08' W 123°25'0 0.1
2017-Dec-10 14:29N 48°08' W 123°25'0 0.0
2017-Dec-10 13:56N 48°08' W 123°25'0 0.0
2017-Dec-10 13:29N 48°08' W 123°25'0 0.0
2017-Dec-10 12:59N 48°08' W 123°25'0 0.0
2017-Dec-10 12:29N 48°08' W 123°25'0 0.0
2017-Dec-10 11:59N 48°08' W 123°25'0 0.2
2017-Dec-10 11:29N 48°08' W 123°25'0 0.2
2017-Dec-10 10:59N 48°08' W 123°25'0 0.1
2017-Dec-10 10:29N 48°08' W 123°25'0 0.0
2017-Dec-10 09:59N 48°08' W 123°25'0 0.1
2017-Dec-10 09:29N 48°08' W 123°25'0 0.0
2017-Dec-10 08:59N 48°08' W 123°25'0 0.0
2017-Dec-10 08:29N 48°08' W 123°25'0 0.0
2017-Dec-10 07:59N 48°08' W 123°25'0 0.0
2017-Dec-10 07:29N 48°08' W 123°25'0 0.0
2017-Dec-10 06:56N 48°08' W 123°25'0 0.1
2017-Dec-10 06:20N 48°08' W 123°25'0 0.0
2017-Dec-10 05:44N 48°08' W 123°25'0 0.0
2017-Dec-10 05:29N 48°08' W 123°25'0 0.1
2017-Dec-10 04:59N 48°08' W 123°25'0 0.1
2017-Dec-10 04:29N 48°08' W 123°25'0 0.0
2017-Dec-10 03:58N 48°08' W 123°25'0 0.1
2017-Dec-10 03:28N 48°08' W 123°25'0 0.0
2017-Dec-10 02:58N 48°08' W 123°25'0 0.1
2017-Dec-10 02:28N 48°08' W 123°25'0 0.2
2017-Dec-10 01:58N 48°08' W 123°25'0 0.2
2017-Dec-10 01:28N 48°08' W 123°25'0 0.1
2017-Dec-10 00:55N 48°08' W 123°25'0 0.1
2017-Dec-09 23:25N 48°08' W 123°25'2 4.4
2017-Dec-09 23:00N 48°08' W 123°28'0 0.0
2017-Dec-09 22:30N 48°08' W 123°28'0 0.0
2017-Dec-09 22:00N 48°08' W 123°28'0 0.0
2017-Dec-09 21:30N 48°08' W 123°28'0 0.0
2017-Dec-09 21:00N 48°08' W 123°28'0 0.0
2017-Dec-09 20:27N 48°08' W 123°28'0 0.0
2017-Dec-09 20:00N 48°08' W 123°28'0 0.0
2017-Dec-09 19:30N 48°08' W 123°28'0 0.0
2017-Dec-09 18:57N 48°08' W 123°28'0 0.0
2017-Dec-09 18:30N 48°08' W 123°28'0 0.0
2017-Dec-09 18:00N 48°08' W 123°28'0 0.0
2017-Dec-09 17:30N 48°08' W 123°28'0 0.0
2017-Dec-09 17:00N 48°08' W 123°28'0 0.0
2017-Dec-09 16:27N 48°08' W 123°28'0 0.0
2017-Dec-09 15:51N 48°08' W 123°28'0 0.0
2017-Dec-09 15:27N 48°08' W 123°28'0 0.0
2017-Dec-09 14:51N 48°08' W 123°28'0 0.0
2017-Dec-09 14:27N 48°08' W 123°28'0 0.0
2017-Dec-09 14:00N 48°08' W 123°28'0 0.0
2017-Dec-09 13:27N 48°08' W 123°28'0 0.0
2017-Dec-09 12:57N 48°08' W 123°28'0 0.0
2017-Dec-09 12:30N 48°08' W 123°28'0 0.0
2017-Dec-09 12:00N 48°08' W 123°28'0 0.0
2017-Dec-09 11:30N 48°08' W 123°28'0 0.0
2017-Dec-09 11:00N 48°08' W 123°28'0 0.0
2017-Dec-09 10:30N 48°08' W 123°28'0 0.0
2017-Dec-09 10:00N 48°08' W 123°28'0 0.0
2017-Dec-09 09:30N 48°08' W 123°28'0 0.0
2017-Dec-09 09:00N 48°08' W 123°28'0 0.0
2017-Dec-09 08:30N 48°08' W 123°28'0 0.0
2017-Dec-09 08:00N 48°08' W 123°28'0 0.0
2017-Dec-09 07:27N 48°08' W 123°28'0 0.0
2017-Dec-09 06:57N 48°08' W 123°28'0 0.0
2017-Dec-09 06:27N 48°08' W 123°28'0 0.0
2017-Dec-09 05:57N 48°08' W 123°28'0 0.0
2017-Dec-09 05:27N 48°08' W 123°28'0 0.0
2017-Dec-09 04:56N 48°08' W 123°28'0 0.0
2017-Dec-09 04:26N 48°08' W 123°28'0 0.0
2017-Dec-09 03:56N 48°08' W 123°28'0 0.0
2017-Dec-09 03:26N 48°08' W 123°28'0 0.0
2017-Dec-09 02:56N 48°08' W 123°28'0 0.0
2017-Dec-09 02:26N 48°08' W 123°28'0 0.0
2017-Dec-09 01:56N 48°08' W 123°28'0 0.0
2017-Dec-09 01:26N 48°08' W 123°28'0 0.0
2017-Dec-09 00:56N 48°08' W 123°28'0 0.0
2017-Dec-09 00:29N 48°08' W 123°28'0 0.0
2017-Dec-08 23:56N 48°08' W 123°28'0 0.0
2017-Dec-08 23:26N 48°08' W 123°28'0 0.0
2017-Dec-08 22:56N 48°08' W 123°28'0 0.0
2017-Dec-08 22:26N 48°08' W 123°28'0 0.0
2017-Dec-08 21:59N 48°08' W 123°28'0 0.0
2017-Dec-08 21:26N 48°08' W 123°28'0 0.0
2017-Dec-08 20:56N 48°08' W 123°28'0 0.0
2017-Dec-08 20:26N 48°08' W 123°28'0 0.0
2017-Dec-08 19:56N 48°08' W 123°28'0 0.0
2017-Dec-08 19:26N 48°08' W 123°28'0 0.0
2017-Dec-08 18:56N 48°08' W 123°28'2 4.0
2017-Dec-08 18:31N 48°08' W 123°25'1 3.0
2017-Dec-08 18:01N 48°08' W 123°27'0 0.4
2017-Dec-08 17:28N 48°08' W 123°28'0 0.0
2017-Dec-08 16:55N 48°08' W 123°28'0 0.0
2017-Dec-08 16:28N 48°08' W 123°28'0 0.0
2017-Dec-08 15:55N 48°08' W 123°28'1 3.4
2017-Dec-08 15:30N 48°08' W 123°26'0 0.5
2017-Dec-08 14:59N 48°08' W 123°25'0 0.0
2017-Dec-08 14:29N 48°08' W 123°25'0 0.0
2017-Dec-08 13:56N 48°08' W 123°25'0 0.0
2017-Dec-08 13:29N 48°08' W 123°25'0 0.0
2017-Dec-08 12:56N 48°08' W 123°25'0 0.0
2017-Dec-08 12:29N 48°08' W 123°25'0 0.0
2017-Dec-08 11:59N 48°08' W 123°25'0 0.0
2017-Dec-08 11:29N 48°08' W 123°25'0 0.0
2017-Dec-08 10:59N 48°08' W 123°25'2 3.0
2017-Dec-08 10:27N 48°08' W 123°28'2 3.6
2017-Dec-08 10:00N 48°08' W 123°25'2 1.9
2017-Dec-08 09:08N 48°08' W 123°23'0 2.4
2017-Dec-08 09:00N 48°08' W 123°23'3 5.9
2017-Dec-08 08:29N 48°08' W 123°28'0 0.0
2017-Dec-08 07:59N 48°08' W 123°28'0 0.0
2017-Dec-08 07:29N 48°08' W 123°28'0 0.0
2017-Dec-08 06:59N 48°08' W 123°28'0 0.0
2017-Dec-08 06:29N 48°08' W 123°28'0 0.0
2017-Dec-08 05:59N 48°08' W 123°28'0 0.0
2017-Dec-08 05:29N 48°08' W 123°28'0 0.0
2017-Dec-08 04:59N 48°08' W 123°28'0 0.0
2017-Dec-08 04:26N 48°08' W 123°28'0 0.0
2017-Dec-08 03:56N 48°08' W 123°28'0 0.0
2017-Dec-08 03:29N 48°08' W 123°28'0 0.0
2017-Dec-08 02:59N 48°08' W 123°28'0 0.0
2017-Dec-08 02:29N 48°08' W 123°28'0 0.0
2017-Dec-08 01:56N 48°08' W 123°28'0 0.0
2017-Dec-08 01:26N 48°08' W 123°28'0 0.0
2017-Dec-08 00:56N 48°08' W 123°28'0 0.0
2017-Dec-08 00:29N 48°08' W 123°28'0 0.0
2017-Dec-07 23:59N 48°08' W 123°28'0 0.0
2017-Dec-07 23:26N 48°08' W 123°28'0 0.0
2017-Dec-07 22:56N 48°08' W 123°28'0 0.0
2017-Dec-07 22:29N 48°08' W 123°28'0 0.0
2017-Dec-07 21:59N 48°08' W 123°28'0 0.0
2017-Dec-07 21:26N 48°08' W 123°28'0 0.0
2017-Dec-07 20:59N 48°08' W 123°28'0 0.0
2017-Dec-07 20:29N 48°08' W 123°28'0 0.0
2017-Dec-07 19:59N 48°08' W 123°28'0 0.0
2017-Dec-07 19:29N 48°08' W 123°28'0 0.0
2017-Dec-07 18:59N 48°08' W 123°28'0 0.0
2017-Dec-07 18:29N 48°08' W 123°28'0 0.0
2017-Dec-07 17:59N 48°08' W 123°28'0 0.0
2017-Dec-07 17:29N 48°08' W 123°28'0 0.0
2017-Dec-07 16:59N 48°08' W 123°28'0 0.0
2017-Dec-07 16:27N 48°08' W 123°28'0 0.0
2017-Dec-07 16:00N 48°08' W 123°28'0 0.0
2017-Dec-07 15:30N 48°08' W 123°28'0 0.0
2017-Dec-07 15:00N 48°08' W 123°28'0 0.0
2017-Dec-07 14:30N 48°08' W 123°28'0 0.0
2017-Dec-07 14:00N 48°08' W 123°28'0 0.0
2017-Dec-07 13:30N 48°08' W 123°28'0 0.0
2017-Dec-07 13:00N 48°08' W 123°28'0 0.0
2017-Dec-07 12:30N 48°08' W 123°28'0 0.0
2017-Dec-07 12:00N 48°08' W 123°28'0 0.0
2017-Dec-07 11:30N 48°08' W 123°28'0 0.0
2017-Dec-07 11:00N 48°08' W 123°28'0 0.0
2017-Dec-07 10:30N 48°08' W 123°28'0 0.0
2017-Dec-07 10:00N 48°08' W 123°28'0 0.0
2017-Dec-07 09:30N 48°08' W 123°28'2 4.0
2017-Dec-07 09:00N 48°08' W 123°25'3 5.1
2017-Dec-07 08:30N 48°09' W 123°21'611.1
2017-Dec-07 08:00N 48°11' W 123°13'510.6
2017-Dec-07 07:30N 48°13' W 123°06'510.9
2017-Dec-07 07:00N 48°12' W 122°58'2111.3
2017-Dec-07 05:08N 47°58' W 122°34'212.2
2017-Dec-07 05:00N 47°57' W 122°32'510.2
2017-Dec-07 04:30N 47°53' W 122°28'5 9.7
2017-Dec-07 04:00N 47°48' W 122°26'2 4.2
2017-Dec-07 03:30N 47°47' W 122°24'0 0.0
2017-Dec-07 03:00N 47°47' W 122°24'0 0.0
2017-Dec-07 02:30N 47°47' W 122°24'0 0.0
2017-Dec-07 01:56N 47°47' W 122°24'0 0.0
2017-Dec-07 01:29N 47°47' W 122°24'0 0.0
2017-Dec-07 00:59N 47°47' W 122°24'0 0.0
2017-Dec-07 00:29N 47°47' W 122°24'0 0.0
2017-Dec-06 23:59N 47°47' W 122°24'0 0.0
2017-Dec-06 23:29N 47°47' W 122°24'0 0.0
2017-Dec-06 22:59N 47°47' W 122°24'0 0.0
2017-Dec-06 22:29N 47°47' W 122°24'0 0.0
2017-Dec-06 21:59N 47°47' W 122°24'0 0.0
2017-Dec-06 21:29N 47°47' W 122°24'0 0.0
2017-Dec-06 20:56N 47°47' W 122°24'  
Track history (hours):
 
Tides and Currents Weather Stations Pressure Air Temp Water Temp Dewpoint Dewpoint Depression Visibility Wind Speed Wind Dir Waves Ship Positions

Brian S.

Owner: Harley Marine Services, INC, SEATTLE, WA. More information available from US FCC via Universal Licensing System and Coast Guard Vessel Documentation Center.

Last reported at 2017-Dec-16 20:28 UTC. Time now 2017-Dec-16 20:44 UTC.
Position N 48°08' W 123°28'.

Length 33 m; draft 4 m.

Type: Towing. MMSI: 366980250.

Date/timePositionNaut miles runAvg speedWind from/ knotsBaromVisibWave heightAir tempDewpointWater temp
2017-Dec-16 20:28N 48°08' W 123°28'0 0.0
2017-Dec-16 19:58N 48°08' W 123°28'0 0.0
2017-Dec-16 19:28N 48°08' W 123°28'0 0.0
2017-Dec-16 18:58N 48°08' W 123°28'0 0.0
2017-Dec-16 18:28N 48°08' W 123°28'0 0.0
2017-Dec-16 17:58N 48°08' W 123°28'0 0.0
2017-Dec-16 17:28N 48°08' W 123°28'0 0.0
2017-Dec-16 16:58N 48°08' W 123°28'0 0.0
2017-Dec-16 16:28N 48°08' W 123°28'0 0.0
2017-Dec-16 15:55N 48°08' W 123°28'2 5.5
2017-Dec-16 15:31N 48°08' W 123°24'0 0.1
2017-Dec-16 14:58N 48°08' W 123°24'0 0.1
2017-Dec-16 14:28N 48°08' W 123°24'0 0.1
2017-Dec-16 13:55N 48°08' W 123°24'0 0.0
2017-Dec-16 13:28N 48°08' W 123°24'0 0.1
2017-Dec-16 12:55N 48°08' W 123°24'0 0.2
2017-Dec-16 12:28N 48°08' W 123°24'0 0.1
2017-Dec-16 11:58N 48°08' W 123°24'0 0.1
2017-Dec-16 11:28N 48°08' W 123°24'0 0.1
2017-Dec-16 10:58N 48°08' W 123°24'0 0.0
2017-Dec-16 10:01N 48°08' W 123°24'0 0.1
2017-Dec-16 09:58N 48°08' W 123°24'1 3.2
2017-Dec-16 09:30N 48°08' W 123°26'1 1.5
2017-Dec-16 08:56N 48°08' W 123°28'0 0.0
2017-Dec-16 08:29N 48°08' W 123°28'0 0.0
2017-Dec-16 07:56N 48°08' W 123°28'0 0.0
2017-Dec-16 07:20N 48°08' W 123°28'0 0.0
2017-Dec-16 06:20N 48°08' W 123°28'0 0.0
2017-Dec-16 05:56N 48°08' W 123°28'0 0.0
2017-Dec-16 04:32N 48°08' W 123°28'0 0.0
2017-Dec-16 04:26N 48°08' W 123°28'0 0.0
2017-Dec-16 03:59N 48°08' W 123°28'0 0.0
2017-Dec-16 03:29N 48°08' W 123°28'0 0.0
2017-Dec-16 02:56N 48°08' W 123°28'0 0.0
2017-Dec-16 02:26N 48°08' W 123°28'0 0.0
2017-Dec-16 01:56N 48°08' W 123°28'0 0.0
2017-Dec-16 01:26N 48°08' W 123°28'0 0.0
2017-Dec-16 00:56N 48°08' W 123°28'0 0.0
2017-Dec-16 00:26N 48°08' W 123°28'0 0.0
2017-Dec-15 23:56N 48°08' W 123°28'0 0.0
2017-Dec-15 23:26N 48°08' W 123°28'0 0.0
2017-Dec-15 22:56N 48°08' W 123°28'0 0.0
2017-Dec-15 22:26N 48°08' W 123°28'0 0.0
2017-Dec-15 21:56N 48°08' W 123°28'0 0.0
2017-Dec-15 21:26N 48°08' W 123°28'0 0.0
2017-Dec-15 20:56N 48°08' W 123°28'0 0.0
2017-Dec-15 20:26N 48°08' W 123°28'0 1.1
2017-Dec-15 20:00N 48°08' W 123°27'0 0.3
2017-Dec-15 19:25N 48°08' W 123°27'0 0.0
2017-Dec-15 18:55N 48°08' W 123°27'0 0.0
2017-Dec-15 18:25N 48°08' W 123°27'0 0.0
2017-Dec-15 17:55N 48°08' W 123°27'0 0.1
2017-Dec-15 17:28N 48°08' W 123°27'0 0.1
2017-Dec-15 16:58N 48°08' W 123°27'0 0.1
2017-Dec-15 16:28N 48°08' W 123°27'0 0.1
2017-Dec-15 15:58N 48°08' W 123°27'0 0.0
2017-Dec-15 15:28N 48°08' W 123°27'0 0.0
2017-Dec-15 14:58N 48°08' W 123°27'0 0.2
2017-Dec-15 14:30N 48°08' W 123°27'2 2.9
2017-Dec-15 13:55N 48°08' W 123°24'0 0.1
2017-Dec-15 13:25N 48°08' W 123°24'0 0.0
2017-Dec-15 12:58N 48°08' W 123°24'0 0.0
2017-Dec-15 12:22N 48°08' W 123°24'0 0.0
2017-Dec-15 11:55N 48°08' W 123°24'0 0.1
2017-Dec-15 11:28N 48°08' W 123°24'0 0.0
2017-Dec-15 10:58N 48°08' W 123°24'0 0.1
2017-Dec-15 10:28N 48°08' W 123°24'0 0.0
2017-Dec-15 09:58N 48°08' W 123°24'0 0.1
2017-Dec-15 09:25N 48°08' W 123°24'0 0.0
2017-Dec-15 08:58N 48°08' W 123°24'0 0.0
2017-Dec-15 08:25N 48°08' W 123°24'0 0.2
2017-Dec-15 08:00N 48°08' W 123°24'2 4.1
2017-Dec-15 07:29N 48°08' W 123°28'0 0.0
2017-Dec-15 06:56N 48°08' W 123°28'0 0.0
2017-Dec-15 06:29N 48°08' W 123°28'0 0.0
2017-Dec-15 05:59N 48°08' W 123°28'0 0.0
2017-Dec-15 05:26N 48°08' W 123°28'0 0.0
2017-Dec-15 04:56N 48°08' W 123°28'0 0.0
2017-Dec-15 04:23N 48°08' W 123°28'0 0.0
2017-Dec-15 03:56N 48°08' W 123°28'0 0.0
2017-Dec-15 02:28N 48°08' W 123°28'0 0.0
2017-Dec-15 00:58N 48°08' W 123°28'0 0.0
2017-Dec-15 00:28N 48°08' W 123°28'0 0.0
2017-Dec-14 18:28N 48°08' W 123°28'0 0.0
2017-Dec-14 17:58N 48°08' W 123°28'0 0.0
2017-Dec-14 17:25N 48°08' W 123°28'0 0.0
2017-Dec-14 16:58N 48°08' W 123°28'0 0.0
2017-Dec-14 16:28N 48°08' W 123°28'0 0.0
2017-Dec-14 15:58N 48°08' W 123°28'0 0.0
2017-Dec-14 14:58N 48°08' W 123°28'0 0.0
2017-Dec-14 14:28N 48°08' W 123°28'0 0.0
2017-Dec-14 13:58N 48°08' W 123°28'0 0.0
2017-Dec-14 13:28N 48°08' W 123°28'0 0.0
2017-Dec-14 12:58N 48°08' W 123°28'0 0.0
2017-Dec-14 12:28N 48°08' W 123°28'0 0.0
2017-Dec-14 11:58N 48°08' W 123°28'0 0.0
2017-Dec-14 11:28N 48°08' W 123°28'0 0.0
2017-Dec-14 10:58N 48°08' W 123°28'0 0.0
2017-Dec-14 10:28N 48°08' W 123°28'0 0.0
2017-Dec-14 09:58N 48°08' W 123°28'0 0.0
2017-Dec-14 09:28N 48°08' W 123°28'0 0.0
2017-Dec-14 08:58N 48°08' W 123°28'0 0.0
2017-Dec-14 08:28N 48°08' W 123°28'0 0.0
2017-Dec-14 07:58N 48°08' W 123°28'0 0.0
2017-Dec-14 07:28N 48°08' W 123°28'0 0.0
2017-Dec-14 06:58N 48°08' W 123°28'0 0.0
2017-Dec-14 06:28N 48°08' W 123°28'0 0.0
2017-Dec-14 05:58N 48°08' W 123°28'0 0.0
2017-Dec-14 05:28N 48°08' W 123°28'0 0.0
2017-Dec-14 04:58N 48°08' W 123°28'0 0.0
2017-Dec-14 04:28N 48°08' W 123°28'0 0.0
2017-Dec-14 03:55N 48°08' W 123°28'0 0.0
2017-Dec-14 03:28N 48°08' W 123°28'0 0.0
2017-Dec-14 02:58N 48°08' W 123°28'0 0.0
2017-Dec-14 02:28N 48°08' W 123°28'0 0.0
2017-Dec-14 01:55N 48°08' W 123°28'0 0.0
2017-Dec-14 01:28N 48°08' W 123°28'0 0.0
2017-Dec-14 00:58N 48°08' W 123°28'0 0.0
2017-Dec-14 00:28N 48°08' W 123°28'0 0.0
2017-Dec-13 23:58N 48°08' W 123°28'0 0.0
2017-Dec-13 23:28N 48°08' W 123°28'0 0.0
2017-Dec-13 22:58N 48°08' W 123°28'0 0.0
2017-Dec-13 22:28N 48°08' W 123°28'0 0.0
2017-Dec-13 21:58N 48°08' W 123°28'0 0.0
2017-Dec-13 21:28N 48°08' W 123°28'0 0.0
2017-Dec-13 20:58N 48°08' W 123°28'0 0.0
2017-Dec-13 20:28N 48°08' W 123°28'0 0.0
2017-Dec-13 19:58N 48°08' W 123°28'0 0.0
2017-Dec-13 19:28N 48°08' W 123°28'0 0.0
2017-Dec-13 18:58N 48°08' W 123°28'0 0.0
2017-Dec-13 18:28N 48°08' W 123°28'0 0.0
2017-Dec-13 17:58N 48°08' W 123°28'0 0.0
2017-Dec-13 17:22N 48°08' W 123°28'0 0.0
2017-Dec-13 17:01N 48°08' W 123°28'0 0.0
2017-Dec-13 16:31N 48°08' W 123°28'0 0.0
2017-Dec-13 16:00N 48°08' W 123°28'0 0.0
2017-Dec-13 15:30N 48°08' W 123°28'0 0.0
2017-Dec-13 14:57N 48°08' W 123°28'0 0.0
2017-Dec-13 14:30N 48°08' W 123°28'0 0.0
2017-Dec-13 13:57N 48°08' W 123°28'0 0.0
2017-Dec-13 13:30N 48°08' W 123°28'0 0.0
2017-Dec-13 13:00N 48°08' W 123°28'0 0.0
2017-Dec-13 12:30N 48°08' W 123°28'0 0.0
2017-Dec-13 12:00N 48°08' W 123°28'0 0.0
2017-Dec-13 11:30N 48°08' W 123°28'0 0.0
2017-Dec-13 11:00N 48°08' W 123°28'0 0.0
2017-Dec-13 10:30N 48°08' W 123°28'0 0.0
2017-Dec-13 10:00N 48°08' W 123°28'0 0.0
2017-Dec-13 09:27N 48°08' W 123°28'0 0.0
2017-Dec-13 08:57N 48°08' W 123°28'0 0.0
2017-Dec-13 08:27N 48°08' W 123°28'0 0.0
2017-Dec-13 07:57N 48°08' W 123°28'0 0.0
2017-Dec-13 07:15N 48°08' W 123°28'0 0.0
2017-Dec-13 03:45N 48°08' W 123°28'0 0.0
2017-Dec-13 03:27N 48°08' W 123°28'0 0.0
2017-Dec-13 03:00N 48°08' W 123°28'0 0.0
2017-Dec-13 02:30N 48°08' W 123°28'0 0.0
2017-Dec-13 01:57N 48°08' W 123°28'0 0.0
2017-Dec-13 01:27N 48°08' W 123°28'0 0.0
2017-Dec-13 00:57N 48°08' W 123°28'0 0.0
2017-Dec-13 00:27N 48°08' W 123°28'0 0.0
2017-Dec-12 23:57N 48°08' W 123°28'0 0.0
2017-Dec-12 23:27N 48°08' W 123°28'0 0.0
2017-Dec-12 22:57N 48°08' W 123°28'0 0.0
2017-Dec-12 22:27N 48°08' W 123°28'0 0.0
2017-Dec-12 21:57N 48°08' W 123°28'0 0.0
2017-Dec-12 21:27N 48°08' W 123°28'0 0.0
2017-Dec-12 20:57N 48°08' W 123°28'0 0.0
2017-Dec-12 20:21N 48°08' W 123°28'0 0.0
2017-Dec-12 20:00N 48°08' W 123°28'0 0.0
2017-Dec-12 19:30N 48°08' W 123°28'0 0.0
2017-Dec-12 19:00N 48°08' W 123°28'0 0.0
2017-Dec-12 18:30N 48°08' W 123°28'0 0.0
2017-Dec-12 18:00N 48°08' W 123°28'0 0.0
2017-Dec-12 17:30N 48°08' W 123°28'0 0.0
2017-Dec-12 16:57N 48°08' W 123°28'0 0.0
2017-Dec-12 16:30N 48°08' W 123°28'0 0.0
2017-Dec-12 16:00N 48°08' W 123°28'0 0.0
2017-Dec-12 15:30N 48°08' W 123°28'0 0.0
2017-Dec-12 15:00N 48°08' W 123°28'0 0.0
2017-Dec-12 14:30N 48°08' W 123°28'0 0.0
2017-Dec-12 14:00N 48°08' W 123°28'0 0.0
2017-Dec-12 13:30N 48°08' W 123°28'0 0.0
2017-Dec-12 13:00N 48°08' W 123°28'0 0.0
2017-Dec-12 12:30N 48°08' W 123°28'0 0.0
2017-Dec-12 12:00N 48°08' W 123°28'0 0.0
2017-Dec-12 11:30N 48°08' W 123°28'0 0.0
2017-Dec-12 11:00N 48°08' W 123°28'0 0.0
2017-Dec-12 10:30N 48°08' W 123°28'0 0.0
2017-Dec-12 10:00N 48°08' W 123°28'0 0.0
2017-Dec-12 09:30N 48°08' W 123°28'0 0.0
2017-Dec-12 09:00N 48°08' W 123°28'0 0.0
2017-Dec-12 08:30N 48°08' W 123°28'0 0.0
2017-Dec-12 08:00N 48°08' W 123°28'0 0.0
2017-Dec-12 07:30N 48°08' W 123°28'0 0.0
2017-Dec-12 07:00N 48°08' W 123°28'0 0.0
2017-Dec-12 06:30N 48°08' W 123°28'0 0.0
2017-Dec-12 06:00N 48°08' W 123°28'0 0.0
2017-Dec-12 05:30N 48°08' W 123°28'0 0.0
2017-Dec-12 05:00N 48°08' W 123°28'0 0.0
2017-Dec-12 04:29N 48°08' W 123°28'0 0.0
2017-Dec-12 03:59N 48°08' W 123°28'0 0.0
2017-Dec-12 03:29N 48°08' W 123°28'0 0.0
2017-Dec-12 02:59N 48°08' W 123°28'0 0.0
2017-Dec-12 02:29N 48°08' W 123°28'0 0.0
2017-Dec-12 01:59N 48°08' W 123°28'0 0.0
2017-Dec-12 01:29N 48°08' W 123°28'0 0.0
2017-Dec-12 00:59N 48°08' W 123°28'0 0.0
2017-Dec-12 00:29N 48°08' W 123°28'0 0.0
2017-Dec-11 23:59N 48°08' W 123°28'0 0.0
2017-Dec-11 23:29N 48°08' W 123°28'0 0.0
2017-Dec-11 22:59N 48°08' W 123°28'0 0.0
2017-Dec-11 22:29N 48°08' W 123°28'0 0.0
2017-Dec-11 21:59N 48°08' W 123°28'0 0.0
2017-Dec-11 21:29N 48°08' W 123°28'0 0.0
2017-Dec-11 20:59N 48°08' W 123°28'0 0.0
2017-Dec-11 20:26N 48°08' W 123°28'0 0.0
2017-Dec-11 19:59N 48°08' W 123°28'0 0.0
2017-Dec-11 19:29N 48°08' W 123°28'0 0.0
2017-Dec-11 18:59N 48°08' W 123°28'0 0.0
2017-Dec-11 18:29N 48°08' W 123°28'0 0.0
2017-Dec-11 17:59N 48°08' W 123°28'0 0.0
2017-Dec-11 17:29N 48°08' W 123°28'0 0.0
2017-Dec-11 16:59N 48°08' W 123°28'0 0.0
2017-Dec-11 16:26N 48°08' W 123°28'0 0.0
2017-Dec-11 15:56N 48°08' W 123°28'0 0.0
2017-Dec-11 15:29N 48°08' W 123°28'0 0.0
2017-Dec-11 14:59N 48°08' W 123°28'0 0.0
2017-Dec-11 14:29N 48°08' W 123°28'0 0.0
2017-Dec-11 13:59N 48°08' W 123°28'0 0.0
2017-Dec-11 13:29N 48°08' W 123°28'0 0.0
2017-Dec-11 12:56N 48°08' W 123°28'0 0.0
2017-Dec-11 12:29N 48°08' W 123°28'1 1.1
2017-Dec-11 12:00N 48°08' W 123°27'0 0.1
2017-Dec-11 11:30N 48°08' W 123°27'0 0.0
2017-Dec-11 11:00N 48°08' W 123°27'0 0.0
2017-Dec-11 10:30N 48°08' W 123°27'0 0.1
2017-Dec-11 10:00N 48°08' W 123°27'0 0.1
2017-Dec-11 09:27N 48°08' W 123°27'0 0.0
2017-Dec-11 08:57N 48°08' W 123°27'0 0.0
2017-Dec-11 08:27N 48°08' W 123°27'0 0.1
2017-Dec-11 07:57N 48°08' W 123°27'0 0.0
2017-Dec-11 07:03N 48°08' W 123°27'0 0.1
2017-Dec-11 06:57N 48°08' W 123°27'0 0.0
2017-Dec-11 06:28N 48°08' W 123°27'0 0.1
2017-Dec-11 06:00N 48°08' W 123°27'0 0.2
2017-Dec-11 05:27N 48°08' W 123°27'0 0.8
2017-Dec-11 05:00N 48°08' W 123°27'1 1.5
2017-Dec-11 04:30N 48°08' W 123°26'1 2.0
2017-Dec-11 03:59N 48°08' W 123°28'0 0.0
2017-Dec-11 03:29N 48°08' W 123°28'0 0.0
2017-Dec-11 02:59N 48°08' W 123°28'0 0.0
2017-Dec-11 02:29N 48°08' W 123°28'0 0.0
2017-Dec-11 01:59N 48°08' W 123°28'0 0.0
2017-Dec-11 01:26N 48°08' W 123°28'0 0.0
2017-Dec-11 00:59N 48°08' W 123°28'0 0.0
2017-Dec-11 00:29N 48°08' W 123°28'0 0.0
2017-Dec-10 23:59N 48°08' W 123°28'0 0.0
2017-Dec-10 23:29N 48°08' W 123°28'0 0.0
2017-Dec-10 22:59N 48°08' W 123°28'0 0.0
2017-Dec-10 22:29N 48°08' W 123°28'0 0.0
2017-Dec-10 21:59N 48°08' W 123°28'0 0.0
2017-Dec-10 21:29N 48°08' W 123°28'0 0.0
2017-Dec-10 20:59N 48°08' W 123°28'0 0.0
2017-Dec-10 20:26N 48°08' W 123°28'0 0.0
2017-Dec-10 19:59N 48°08' W 123°28'0 0.0
2017-Dec-10 19:29N 48°08' W 123°28'0 0.0
2017-Dec-10 18:59N 48°08' W 123°28'0 0.0
2017-Dec-10 18:29N 48°08' W 123°28'0 0.0
2017-Dec-10 17:59N 48°08' W 123°28'0 0.0
2017-Dec-10 17:26N 48°08' W 123°28'0 0.0
2017-Dec-10 16:59N 48°08' W 123°28'0 0.0
2017-Dec-10 16:29N 48°08' W 123°28'0 0.0
2017-Dec-10 15:59N 48°08' W 123°28'2 3.2
2017-Dec-10 15:29N 48°08' W 123°25'0 0.1
2017-Dec-10 14:56N 48°08' W 123°25'0 0.1
2017-Dec-10 14:29N 48°08' W 123°25'0 0.0
2017-Dec-10 13:56N 48°08' W 123°25'0 0.0
2017-Dec-10 13:29N 48°08' W 123°25'0 0.0
2017-Dec-10 12:59N 48°08' W 123°25'0 0.0
2017-Dec-10 12:29N 48°08' W 123°25'0 0.0
2017-Dec-10 11:59N 48°08' W 123°25'0 0.2
2017-Dec-10 11:29N 48°08' W 123°25'0 0.2
2017-Dec-10 10:59N 48°08' W 123°25'0 0.1
2017-Dec-10 10:29N 48°08' W 123°25'0 0.0
2017-Dec-10 09:59N 48°08' W 123°25'0 0.1
2017-Dec-10 09:29N 48°08' W 123°25'0 0.0
2017-Dec-10 08:59N 48°08' W 123°25'0 0.0
2017-Dec-10 08:29N 48°08' W 123°25'0 0.0
2017-Dec-10 07:59N 48°08' W 123°25'0 0.0
2017-Dec-10 07:29N 48°08' W 123°25'0 0.0
2017-Dec-10 06:56N 48°08' W 123°25'0 0.1
2017-Dec-10 06:20N 48°08' W 123°25'0 0.0
2017-Dec-10 05:44N 48°08' W 123°25'0 0.0
2017-Dec-10 05:29N 48°08' W 123°25'0 0.1
2017-Dec-10 04:59N 48°08' W 123°25'0 0.1
2017-Dec-10 04:29N 48°08' W 123°25'0 0.0
2017-Dec-10 03:58N 48°08' W 123°25'0 0.1
2017-Dec-10 03:28N 48°08' W 123°25'0 0.0
2017-Dec-10 02:58N 48°08' W 123°25'0 0.1
2017-Dec-10 02:28N 48°08' W 123°25'0 0.2
2017-Dec-10 01:58N 48°08' W 123°25'0 0.2
2017-Dec-10 01:28N 48°08' W 123°25'0 0.1
2017-Dec-10 00:55N 48°08' W 123°25'0 0.1
2017-Dec-09 23:25N 48°08' W 123°25'2 4.4
2017-Dec-09 23:00N 48°08' W 123°28'0 0.0
2017-Dec-09 22:30N 48°08' W 123°28'0 0.0
2017-Dec-09 22:00N 48°08' W 123°28'0 0.0
2017-Dec-09 21:30N 48°08' W 123°28'0 0.0
2017-Dec-09 21:00N 48°08' W 123°28'0 0.0
2017-Dec-09 20:27N 48°08' W 123°28'0 0.0
2017-Dec-09 20:00N 48°08' W 123°28'0 0.0
2017-Dec-09 19:30N 48°08' W 123°28'0 0.0
2017-Dec-09 18:57N 48°08' W 123°28'0 0.0
2017-Dec-09 18:30N 48°08' W 123°28'0 0.0
2017-Dec-09 18:00N 48°08' W 123°28'0 0.0
2017-Dec-09 17:30N 48°08' W 123°28'0 0.0
2017-Dec-09 17:00N 48°08' W 123°28'0 0.0
2017-Dec-09 16:27N 48°08' W 123°28'0 0.0
2017-Dec-09 15:51N 48°08' W 123°28'0 0.0
2017-Dec-09 15:27N 48°08' W 123°28'0 0.0
2017-Dec-09 14:51N 48°08' W 123°28'0 0.0
2017-Dec-09 14:27N 48°08' W 123°28'0 0.0
2017-Dec-09 14:00N 48°08' W 123°28'0 0.0
2017-Dec-09 13:27N 48°08' W 123°28'0 0.0
2017-Dec-09 12:57N 48°08' W 123°28'0 0.0
2017-Dec-09 12:30N 48°08' W 123°28'0 0.0
2017-Dec-09 12:00N 48°08' W 123°28'0 0.0
2017-Dec-09 11:30N 48°08' W 123°28'0 0.0
2017-Dec-09 11:00N 48°08' W 123°28'0 0.0
2017-Dec-09 10:30N 48°08' W 123°28'0 0.0
2017-Dec-09 10:00N 48°08' W 123°28'0 0.0
2017-Dec-09 09:30N 48°08' W 123°28'0 0.0
2017-Dec-09 09:00N 48°08' W 123°28'0 0.0
2017-Dec-09 08:30N 48°08' W 123°28'0 0.0
2017-Dec-09 08:00N 48°08' W 123°28'0 0.0
2017-Dec-09 07:27N 48°08' W 123°28'0 0.0
2017-Dec-09 06:57N 48°08' W 123°28'0 0.0
2017-Dec-09 06:27N 48°08' W 123°28'0 0.0
2017-Dec-09 05:57N 48°08' W 123°28'0 0.0
2017-Dec-09 05:27N 48°08' W 123°28'0 0.0
2017-Dec-09 04:56N 48°08' W 123°28'0 0.0
2017-Dec-09 04:26N 48°08' W 123°28'0 0.0
2017-Dec-09 03:56N 48°08' W 123°28'0 0.0
2017-Dec-09 03:26N 48°08' W 123°28'0 0.0
2017-Dec-09 02:56N 48°08' W 123°28'0 0.0
2017-Dec-09 02:26N 48°08' W 123°28'0 0.0
2017-Dec-09 01:56N 48°08' W 123°28'0 0.0
2017-Dec-09 01:26N 48°08' W 123°28'0 0.0
2017-Dec-09 00:56N 48°08' W 123°28'0 0.0
2017-Dec-09 00:29N 48°08' W 123°28'0 0.0
2017-Dec-08 23:56N 48°08' W 123°28'0 0.0
2017-Dec-08 23:26N 48°08' W 123°28'0 0.0
2017-Dec-08 22:56N 48°08' W 123°28'0 0.0
2017-Dec-08 22:26N 48°08' W 123°28'0 0.0
2017-Dec-08 21:59N 48°08' W 123°28'0 0.0
2017-Dec-08 21:26N 48°08' W 123°28'0 0.0
2017-Dec-08 20:56N 48°08' W 123°28'0 0.0
2017-Dec-08 20:26N 48°08' W 123°28'0 0.0
2017-Dec-08 19:56N 48°08' W 123°28'0 0.0
2017-Dec-08 19:26N 48°08' W 123°28'0 0.0
2017-Dec-08 18:56N 48°08' W 123°28'2 4.0
2017-Dec-08 18:31N 48°08' W 123°25'1 3.0
2017-Dec-08 18:01N 48°08' W 123°27'0 0.4
2017-Dec-08 17:28N 48°08' W 123°28'0 0.0
2017-Dec-08 16:55N 48°08' W 123°28'0 0.0
2017-Dec-08 16:28N 48°08' W 123°28'0 0.0
2017-Dec-08 15:55N 48°08' W 123°28'1 3.4
2017-Dec-08 15:30N 48°08' W 123°26'0 0.5
2017-Dec-08 14:59N 48°08' W 123°25'0 0.0
2017-Dec-08 14:29N 48°08' W 123°25'0 0.0
2017-Dec-08 13:56N 48°08' W 123°25'0 0.0
2017-Dec-08 13:29N 48°08' W 123°25'0 0.0
2017-Dec-08 12:56N 48°08' W 123°25'0 0.0
2017-Dec-08 12:29N 48°08' W 123°25'0 0.0
2017-Dec-08 11:59N 48°08' W 123°25'0 0.0
2017-Dec-08 11:29N 48°08' W 123°25'0 0.0
2017-Dec-08 10:59N 48°08' W 123°25'2 3.0
2017-Dec-08 10:27N 48°08' W 123°28'2 3.6
2017-Dec-08 10:00N 48°08' W 123°25'2 1.9
2017-Dec-08 09:08N 48°08' W 123°23'0 2.4
2017-Dec-08 09:00N 48°08' W 123°23'3 5.9
2017-Dec-08 08:29N 48°08' W 123°28'0 0.0
2017-Dec-08 07:59N 48°08' W 123°28'0 0.0
2017-Dec-08 07:29N 48°08' W 123°28'0 0.0
2017-Dec-08 06:59N 48°08' W 123°28'0 0.0
2017-Dec-08 06:29N 48°08' W 123°28'0 0.0
2017-Dec-08 05:59N 48°08' W 123°28'0 0.0
2017-Dec-08 05:29N 48°08' W 123°28'0 0.0
2017-Dec-08 04:59N 48°08' W 123°28'0 0.0
2017-Dec-08 04:26N 48°08' W 123°28'0 0.0
2017-Dec-08 03:56N 48°08' W 123°28'0 0.0
2017-Dec-08 03:29N 48°08' W 123°28'0 0.0
2017-Dec-08 02:59N 48°08' W 123°28'0 0.0
2017-Dec-08 02:29N 48°08' W 123°28'0 0.0
2017-Dec-08 01:56N 48°08' W 123°28'0 0.0
2017-Dec-08 01:26N 48°08' W 123°28'0 0.0
2017-Dec-08 00:56N 48°08' W 123°28'0 0.0
2017-Dec-08 00:29N 48°08' W 123°28'0 0.0
2017-Dec-07 23:59N 48°08' W 123°28'0 0.0
2017-Dec-07 23:26N 48°08' W 123°28'0 0.0
2017-Dec-07 22:56N 48°08' W 123°28'0 0.0
2017-Dec-07 22:29N 48°08' W 123°28'0 0.0
2017-Dec-07 21:59N 48°08' W 123°28'0 0.0
2017-Dec-07 21:26N 48°08' W 123°28'0 0.0
2017-Dec-07 20:59N 48°08' W 123°28'0 0.0
2017-Dec-07 20:29N 48°08' W 123°28'0 0.0
2017-Dec-07 19:59N 48°08' W 123°28'0 0.0
2017-Dec-07 19:29N 48°08' W 123°28'0 0.0
2017-Dec-07 18:59N 48°08' W 123°28'0 0.0
2017-Dec-07 18:29N 48°08' W 123°28'0 0.0
2017-Dec-07 17:59N 48°08' W 123°28'0 0.0
2017-Dec-07 17:29N 48°08' W 123°28'0 0.0
2017-Dec-07 16:59N 48°08' W 123°28'0 0.0
2017-Dec-07 16:27N 48°08' W 123°28'0 0.0
2017-Dec-07 16:00N 48°08' W 123°28'0 0.0
2017-Dec-07 15:30N 48°08' W 123°28'0 0.0
2017-Dec-07 15:00N 48°08' W 123°28'0 0.0
2017-Dec-07 14:30N 48°08' W 123°28'0 0.0
2017-Dec-07 14:00N 48°08' W 123°28'0 0.0
2017-Dec-07 13:30N 48°08' W 123°28'0 0.0
2017-Dec-07 13:00N 48°08' W 123°28'0 0.0
2017-Dec-07 12:30N 48°08' W 123°28'0 0.0
2017-Dec-07 12:00N 48°08' W 123°28'0 0.0
2017-Dec-07 11:30N 48°08' W 123°28'0 0.0
2017-Dec-07 11:00N 48°08' W 123°28'0 0.0
2017-Dec-07 10:30N 48°08' W 123°28'0 0.0
2017-Dec-07 10:00N 48°08' W 123°28'0 0.0
2017-Dec-07 09:30N 48°08' W 123°28'2 4.0
2017-Dec-07 09:00N 48°08' W 123°25'3 5.1
2017-Dec-07 08:30N 48°09' W 123°21'611.1
2017-Dec-07 08:00N 48°11' W 123°13'510.6
2017-Dec-07 07:30N 48°13' W 123°06'510.9
2017-Dec-07 07:00N 48°12' W 122°58'2111.3
2017-Dec-07 05:08N 47°58' W 122°34'212.2
2017-Dec-07 05:00N 47°57' W 122°32'510.2
2017-Dec-07 04:30N 47°53' W 122°28'5 9.7
2017-Dec-07 04:00N 47°48' W 122°26'2 4.2
2017-Dec-07 03:30N 47°47' W 122°24'0 0.0
2017-Dec-07 03:00N 47°47' W 122°24'0 0.0
2017-Dec-07 02:30N 47°47' W 122°24'0 0.0
2017-Dec-07 01:56N 47°47' W 122°24'0 0.0
2017-Dec-07 01:29N 47°47' W 122°24'0 0.0
2017-Dec-07 00:59N 47°47' W 122°24'0 0.0
2017-Dec-07 00:29N 47°47' W 122°24'0 0.0
2017-Dec-06 23:59N 47°47' W 122°24'0 0.0
2017-Dec-06 23:29N 47°47' W 122°24'0 0.0
2017-Dec-06 22:59N 47°47' W 122°24'0 0.0
2017-Dec-06 22:29N 47°47' W 122°24'0 0.0
2017-Dec-06 21:59N 47°47' W 122°24'0 0.0
2017-Dec-06 21:29N 47°47' W 122°24'0 0.0
2017-Dec-06 20:56N 47°47' W 122°24'  

Dump ship's entire track history